Time,TemperatureF,DewpointF,PressureIn,WindDirection,WindDirectionDegrees,WindSpeedMPH,WindSpeedGustMPH,Humidity,HourlyPrecipIn,Conditions,Clouds,dailyrainin,SoftwareType,DateUTC
2013-03-25 00:04:00,39.0,31.4,27.37,East,90,0.0,2.7,74,0.00,,,0.00,WSDL version 420,2013-03-25 04:04:00,
2013-03-25 00:09:00,38.8,31.2,27.37,East,98,0.0,0.0,74,0.00,,,0.00,WSDL version 420,2013-03-25 04:09:00,
2013-03-25 00:14:00,38.8,31.3,27.37,South,169,1.5,2.9,74,0.00,,,0.00,WSDL version 420,2013-03-25 04:14:00,
2013-03-25 00:19:00,38.5,31.0,27.34,ENE,68,0.0,3.1,74,0.00,,,0.00,WSDL version 420,2013-03-25 04:19:00,
2013-03-25 00:24:00,38.5,31.0,27.34,ENE,68,1.0,3.1,74,0.00,,,0.00,WSDL version 420,2013-03-25 04:24:00,
2013-03-25 00:29:00,38.8,31.5,27.34,ENE,68,0.0,2.7,75,0.00,,,0.00,WSDL version 420,2013-03-25 04:29:00,
2013-03-25 00:34:00,38.7,31.5,27.34,SSE,158,0.9,0.9,75,0.05,,,0.05,WSDL version 420,2013-03-25 04:34:00,
2013-03-25 00:39:00,38.5,31.3,27.34,NE,45,0.0,1.3,75,0.05,,,0.05,WSDL version 420,2013-03-25 04:39:00,
2013-03-25 00:44:00,38.5,31.3,27.34,East,98,0.8,2.5,75,0.05,,,0.05,WSDL version 420,2013-03-25 04:44:00,
2013-03-25 00:49:00,38.5,31.3,27.34,ENE,68,1.8,2.5,75,0.05,,,0.05,WSDL version 420,2013-03-25 04:49:00,
2013-03-25 00:54:00,38.8,31.5,27.34,ENE,68,0.0,2.5,75,0.05,,,0.05,WSDL version 420,2013-03-25 04:54:00,
2013-03-25 00:59:00,39.1,32.0,27.34,ENE,68,0.0,1.3,75,0.05,,,0.05,WSDL version 420,2013-03-25 04:59:00,
2013-03-25 01:04:00,39.0,32.0,27.34,ENE,68,0.0,0.0,76,0.09,,,0.09,WSDL version 420,2013-03-25 05:04:00,
2013-03-25 01:09:00,38.8,31.8,27.34,ENE,75,1.6,2.5,76,0.09,,,0.09,WSDL version 420,2013-03-25 05:09:00,
2013-03-25 01:14:00,39.0,31.9,27.34,North,8,0.6,3.6,75,0.09,,,0.09,WSDL version 420,2013-03-25 05:14:00,
2013-03-25 01:19:00,38.8,31.6,27.37,NNE,28,3.0,5.6,75,0.09,,,0.09,WSDL version 420,2013-03-25 05:19:00,
2013-03-25 01:24:00,38.3,31.4,27.37,North,353,4.7,5.8,76,0.13,,,0.13,WSDL version 420,2013-03-25 05:24:00,
2013-03-25 01:29:00,37.7,31.0,27.37,South,173,4.8,6.9,77,0.13,,,0.13,WSDL version 420,2013-03-25 05:29:00,
2013-03-25 01:34:00,37.3,30.7,27.37,SE,143,2.8,6.9,77,0.08,,,0.13,WSDL version 420,2013-03-25 05:34:00,
2013-03-25 01:39:00,37.2,31.0,27.37,WNW,293,2.8,6.0,78,0.08,,,0.13,WSDL version 420,2013-03-25 05:39:00,
2013-03-25 01:44:00,37.3,31.0,27.37,East,83,0.8,3.6,77,0.08,,,0.13,WSDL version 420,2013-03-25 05:44:00,
2013-03-25 01:49:00,37.5,30.9,27.37,NNE,23,0.4,2.7,77,0.08,,,0.13,WSDL version 420,2013-03-25 05:49:00,
2013-03-25 01:54:00,37.7,31.2,27.37,West,263,0.0,2.7,77,0.08,,,0.13,WSDL version 420,2013-03-25 05:54:00,
2013-03-25 01:59:00,37.8,31.1,27.37,SE,124,1.6,3.4,76,0.08,,,0.13,WSDL version 420,2013-03-25 05:59:00,
2013-03-25 02:04:00,37.9,31.1,27.37,NE,53,2.0,3.4,76,0.04,,,0.13,WSDL version 420,2013-03-25 06:04:00,
2013-03-25 02:09:00,37.9,31.1,27.37,North,6,2.1,3.1,76,0.04,,,0.13,WSDL version 420,2013-03-25 06:09:00,
2013-03-25 02:14:00,37.9,31.1,27.37,NW,323,2.5,4.9,76,0.04,,,0.13,WSDL version 420,2013-03-25 06:14:00,
2013-03-25 02:19:00,38.1,31.0,27.37,WNW,293,1.0,4.9,75,0.04,,,0.13,WSDL version 420,2013-03-25 06:19:00,
2013-03-25 02:24:00,37.9,30.7,27.37,West,263,0.4,3.8,75,0.00,,,0.13,WSDL version 420,2013-03-25 06:24:00,
2013-03-25 02:29:00,38.1,30.9,27.37,West,263,1.3,3.8,75,0.00,,,0.13,WSDL version 420,2013-03-25 06:29:00,
2013-03-25 02:34:00,38.1,30.9,27.37,SW,218,2.9,3.6,75,-99.99,,,-99.99,WSDL version 420,2013-03-25 06:34:00,
2013-03-25 02:39:00,38.1,30.9,27.37,WSW,248,4.2,5.8,75,0.00,,,0.13,WSDL version 420,2013-03-25 06:39:00,
2013-03-25 02:44:00,38.1,30.6,27.37,WSW,248,1.2,6.0,74,0.00,,,0.13,WSDL version 420,2013-03-25 06:44:00,
2013-03-25 02:49:00,38.1,30.5,27.37,SE,143,3.2,6.0,73,0.00,,,0.13,WSDL version 420,2013-03-25 06:49:00,
2013-03-25 02:54:00,38.1,30.2,27.37,SE,143,2.3,6.3,73,0.00,,,0.13,WSDL version 420,2013-03-25 06:54:00,
2013-03-25 02:59:00,37.9,30.1,27.37,SW,225,2.0,6.3,73,0.00,,,0.13,WSDL version 420,2013-03-25 06:59:00,
2013-03-25 03:04:00,37.8,29.9,27.37,West,263,1.3,3.8,73,0.00,,,0.13,WSDL version 420,2013-03-25 07:04:00,
2013-03-25 03:09:00,37.8,29.9,27.37,South,185,3.0,4.3,73,0.00,,,0.13,WSDL version 420,2013-03-25 07:09:00,
2013-03-25 03:14:00,37.8,29.8,27.37,SW,225,1.5,4.3,72,0.00,,,0.13,WSDL version 420,2013-03-25 07:14:00,
2013-03-25 03:19:00,37.6,29.4,27.37,SW,236,2.7,3.1,72,0.00,,,0.13,WSDL version 420,2013-03-25 07:19:00,
2013-03-25 03:24:00,37.7,29.5,27.37,SSE,158,1.3,3.4,72,0.00,,,0.13,WSDL version 420,2013-03-25 07:24:00,
2013-03-25 03:29:00,37.6,29.4,27.37,South,188,3.2,4.9,72,0.00,,,0.13,WSDL version 420,2013-03-25 07:29:00,
2013-03-25 03:34:00,37.6,29.3,27.37,ENE,68,2.0,4.9,71,0.00,,,0.13,WSDL version 420,2013-03-25 07:34:00,
2013-03-25 03:39:00,37.6,29.0,27.37,SSW,203,1.7,4.7,71,0.00,,,0.13,WSDL version 420,2013-03-25 07:39:00,
2013-03-25 03:44:00,37.6,29.0,27.37,South,188,1.6,3.8,71,0.00,,,0.13,WSDL version 420,2013-03-25 07:44:00,
2013-03-25 03:49:00,37.6,29.0,27.37,East,83,2.2,3.4,71,0.00,,,0.13,WSDL version 420,2013-03-25 07:49:00,
2013-03-25 03:54:00,37.4,28.5,27.37,SE,124,1.8,3.8,70,0.00,,,0.13,WSDL version 420,2013-03-25 07:54:00,
2013-03-25 03:59:00,37.4,28.5,27.37,SSW,208,1.5,5.6,70,0.00,,,0.13,WSDL version 420,2013-03-25 07:59:00,
2013-03-25 04:04:00,37.4,28.5,27.37,WSW,248,2.0,5.6,70,0.00,,,0.13,WSDL version 420,2013-03-25 08:04:00,
2013-03-25 04:09:00,37.2,28.3,27.37,WSW,253,2.1,3.8,70,0.00,,,0.13,WSDL version 420,2013-03-25 08:09:00,
2013-03-25 04:14:00,37.0,28.1,27.37,South,188,3.1,3.8,70,0.00,,,0.13,WSDL version 420,2013-03-25 08:14:00,
2013-03-25 04:19:00,36.9,28.0,27.37,SW,233,4.0,4.3,70,0.00,,,0.13,WSDL version 420,2013-03-25 08:19:00,
2013-03-25 04:24:00,36.6,27.8,27.37,WSW,248,2.9,4.3,70,-99.99,,,-99.99,WSDL version 420,2013-03-25 08:24:00,
2013-03-25 04:29:00,36.4,27.5,27.37,SSW,203,2.5,3.8,70,0.00,,,0.13,WSDL version 420,2013-03-25 08:29:00,
2013-03-25 04:34:00,36.4,27.5,27.40,North,360,3.4,5.4,70,0.00,,,0.13,WSDL version 420,2013-03-25 08:34:00,
2013-03-25 04:39:00,36.3,27.5,27.40,West,281,1.5,5.4,70,0.00,,,0.13,WSDL version 420,2013-03-25 08:39:00,
2013-03-25 04:44:00,36.2,27.4,27.40,East,83,2.5,3.1,70,0.00,,,0.13,WSDL version 420,2013-03-25 08:44:00,
2013-03-25 04:49:00,36.0,26.9,27.40,SSW,203,3.2,4.7,69,0.00,,,0.13,WSDL version 420,2013-03-25 08:49:00,
2013-03-25 04:54:00,36.0,26.8,27.40,NNW,338,1.4,5.4,69,0.00,,,0.13,WSDL version 420,2013-03-25 08:54:00,
2013-03-25 04:59:00,35.7,26.6,27.40,SW,233,1.7,5.4,69,0.00,,,0.13,WSDL version 420,2013-03-25 08:59:00,
2013-03-25 05:04:00,35.6,26.4,27.40,NNW,338,3.9,4.7,69,0.00,,,0.13,WSDL version 420,2013-03-25 09:04:00,
2013-03-25 05:09:00,35.3,26.5,27.40,NE,38,2.2,4.7,70,0.00,,,0.13,WSDL version 420,2013-03-25 09:09:00,
2013-03-25 05:14:00,34.9,26.4,27.40,South,186,1.7,4.9,71,0.00,,,0.13,WSDL version 420,2013-03-25 09:14:00,
2013-03-25 05:19:00,34.9,26.5,27.40,SW,233,2.4,4.9,71,0.00,,,0.13,WSDL version 420,2013-03-25 09:19:00,
2013-03-25 05:24:00,35.1,26.5,27.40,WSW,248,2.5,4.9,70,0.00,,,0.13,WSDL version 420,2013-03-25 09:24:00,
2013-03-25 05:29:00,34.9,26.1,27.40,West,263,2.3,4.3,70,0.00,,,0.13,WSDL version 420,2013-03-25 09:29:00,
2013-03-25 05:34:00,34.4,25.7,27.40,NNW,338,4.0,5.6,70,0.00,,,0.13,WSDL version 420,2013-03-25 09:34:00,
2013-03-25 05:39:00,33.9,25.1,27.40,NE,53,2.0,5.6,70,0.00,,,0.13,WSDL version 420,2013-03-25 09:39:00,
2013-03-25 05:44:00,33.9,25.2,27.40,SW,218,3.7,6.9,70,0.00,,,0.13,WSDL version 420,2013-03-25 09:44:00,
2013-03-25 05:49:00,33.8,24.8,27.43,ENE,60,4.3,6.9,69,0.00,,,0.13,WSDL version 420,2013-03-25 09:49:00,
2013-03-25 05:54:00,33.8,24.3,27.43,NW,315,4.6,7.4,67,0.00,,,0.13,WSDL version 420,2013-03-25 09:54:00,
2013-03-25 05:59:00,33.8,24.0,27.43,NNW,332,3.2,7.4,67,0.00,,,0.13,WSDL version 420,2013-03-25 09:59:00,
2013-03-25 06:04:00,33.8,23.7,27.40,West,259,3.0,5.8,66,0.00,,,0.13,WSDL version 420,2013-03-25 10:04:00,
2013-03-25 06:09:00,33.8,23.7,27.40,SW,233,2.7,4.9,66,0.00,,,0.13,WSDL version 420,2013-03-25 10:09:00,
2013-03-25 06:14:00,33.8,23.3,27.40,ESE,113,3.4,4.9,65,0.00,,,0.13,WSDL version 420,2013-03-25 10:14:00,
2013-03-25 06:19:00,33.8,23.3,27.40,North,353,1.9,3.8,65,0.00,,,0.13,WSDL version 420,2013-03-25 10:19:00,
2013-03-25 06:24:00,33.8,23.3,27.40,SSW,208,2.5,3.6,65,0.00,,,0.13,WSDL version 420,2013-03-25 10:24:00,
2013-03-25 06:29:00,33.6,23.1,27.40,NW,315,2.6,3.8,65,0.00,,,0.13,WSDL version 420,2013-03-25 10:29:00,
2013-03-25 06:34:00,33.6,23.1,27.40,NW,315,3.7,5.4,65,0.00,,,0.13,WSDL version 420,2013-03-25 10:34:00,
2013-03-25 06:39:00,33.6,22.8,27.40,SSW,203,2.4,5.8,64,0.00,,,0.13,WSDL version 420,2013-03-25 10:39:00,
2013-03-25 06:44:00,33.6,22.6,27.40,WNW,293,1.7,5.8,63,0.00,,,0.13,WSDL version 420,2013-03-25 10:44:00,
2013-03-25 06:49:00,33.3,22.0,27.43,West,263,4.9,7.2,62,0.00,,,0.13,WSDL version 420,2013-03-25 10:49:00,
2013-03-25 06:54:00,33.1,21.3,27.43,SSE,163,2.6,7.2,61,0.00,,,0.13,WSDL version 420,2013-03-25 10:54:00,
2013-03-25 06:59:00,33.1,21.1,27.43,North,8,2.6,4.0,61,0.00,,,0.13,WSDL version 420,2013-03-25 10:59:00,
2013-03-25 07:04:00,33.1,21.1,27.43,ESE,113,5.0,6.3,61,0.00,,,0.13,WSDL version 420,2013-03-25 11:04:00,
2013-03-25 07:09:00,33.1,21.1,27.43,SSW,203,2.3,6.3,61,0.00,,,0.13,WSDL version 420,2013-03-25 11:09:00,
2013-03-25 07:14:00,33.0,21.0,27.43,West,270,2.2,4.7,61,0.00,,,0.13,WSDL version 420,2013-03-25 11:14:00,
2013-03-25 07:19:00,32.9,20.9,27.43,SW,214,2.2,4.7,61,0.00,,,0.13,WSDL version 420,2013-03-25 11:19:00,
2013-03-25 07:24:00,32.7,20.8,27.43,SW,233,1.3,4.7,61,0.00,,,0.13,WSDL version 420,2013-03-25 11:24:00,
2013-03-25 07:29:00,32.7,20.8,27.43,SW,218,2.5,4.3,61,0.00,,,0.13,WSDL version 420,2013-03-25 11:29:00,
2013-03-25 07:34:00,32.7,20.8,27.43,East,79,2.9,4.3,61,0.00,,,0.13,WSDL version 420,2013-03-25 11:34:00,
2013-03-25 07:39:00,32.7,20.8,27.43,SSW,208,2.8,4.3,61,0.00,,,0.13,WSDL version 420,2013-03-25 11:39:00,
2013-03-25 07:44:00,32.5,20.6,27.43,West,263,2.4,4.0,61,0.00,,,0.13,WSDL version 420,2013-03-25 11:44:00,
2013-03-25 07:49:00,32.5,20.3,27.43,NW,304,2.7,4.3,60,0.00,,,0.13,WSDL version 420,2013-03-25 11:49:00,
2013-03-25 07:54:00,32.5,20.2,27.43,NW,323,4.1,4.3,60,-99.99,,,-99.99,WSDL version 420,2013-03-25 11:54:00,
2013-03-25 07:59:00,32.5,20.2,27.43,West,278,5.4,13.2,60,0.00,,,0.13,WSDL version 420,2013-03-25 11:59:00,
2013-03-25 08:04:00,32.5,20.2,27.43,West,270,2.3,13.2,60,0.00,,,0.13,WSDL version 420,2013-03-25 12:04:00,
2013-03-25 08:09:00,32.5,20.2,27.43,WSW,248,2.5,5.6,60,0.00,,,0.13,WSDL version 420,2013-03-25 12:09:00,
2013-03-25 08:14:00,32.5,20.2,27.43,West,278,1.3,10.1,60,0.00,,,0.13,WSDL version 420,2013-03-25 12:14:00,
2013-03-25 08:19:00,32.5,20.2,27.43,WSW,248,2.5,10.1,60,0.00,,,0.13,WSDL version 420,2013-03-25 12:19:00,
2013-03-25 08:24:00,32.4,20.0,27.43,WNW,285,2.9,4.3,60,0.00,,,0.13,WSDL version 420,2013-03-25 12:24:00,
2013-03-25 08:29:00,32.4,20.0,27.43,WSW,248,3.8,3.8,60,0.00,,,0.13,WSDL version 420,2013-03-25 12:29:00,
2013-03-25 08:34:00,32.2,20.3,27.43,West,264,2.3,3.8,61,0.00,,,0.13,WSDL version 420,2013-03-25 12:34:00,
2013-03-25 08:39:00,31.9,21.7,27.43,West,270,1.9,3.1,62,0.00,,,0.13,WSDL version 420,2013-03-25 12:39:00,
2013-03-25 08:44:00,31.8,21.8,27.43,NW,326,1.5,2.9,63,0.00,,,0.13,WSDL version 420,2013-03-25 12:44:00,
2013-03-25 08:49:00,31.5,21.8,27.43,West,270,3.6,6.3,64,0.00,,,0.13,WSDL version 420,2013-03-25 12:49:00,
2013-03-25 08:54:00,31.2,21.8,27.43,East,98,1.7,6.3,65,0.00,,,0.13,WSDL version 420,2013-03-25 12:54:00,
2013-03-25 08:59:00,31.2,22.1,27.43,SW,218,1.3,2.9,66,0.00,,,0.13,WSDL version 420,2013-03-25 12:59:00,
2013-03-25 09:04:00,31.2,22.3,27.43,NNE,23,2.3,4.0,66,0.00,,,0.13,WSDL version 420,2013-03-25 13:04:00,
2013-03-25 09:09:00,31.1,22.5,27.43,South,191,2.4,4.0,67,0.00,,,0.13,WSDL version 420,2013-03-25 13:09:00,
2013-03-25 09:14:00,31.2,22.4,27.43,West,281,1.7,3.8,66,0.00,,,0.13,WSDL version 420,2013-03-25 13:14:00,
2013-03-25 09:19:00,31.4,22.5,27.43,North,8,1.6,8.5,66,0.00,,,0.13,WSDL version 420,2013-03-25 13:19:00,
2013-03-25 09:29:00,31.4,22.2,27.43,NW,323,2.6,4.0,65,0.00,,,0.13,WSDL version 420,2013-03-25 13:29:00,
2013-03-25 09:34:00,31.2,22.2,27.43,ENE,62,1.1,4.0,66,0.00,,,0.13,WSDL version 420,2013-03-25 13:34:00,
2013-03-25 09:39:00,31.1,22.2,27.43,SW,231,1.2,4.9,66,0.00,,,0.13,WSDL version 420,2013-03-25 13:39:00,
2013-03-25 09:44:00,31.3,22.7,27.43,WSW,248,1.1,4.9,67,0.00,,,0.13,WSDL version 420,2013-03-25 13:44:00,
2013-03-25 09:49:00,31.6,23.1,27.43,East,96,1.5,2.7,67,0.00,,,0.13,WSDL version 420,2013-03-25 13:49:00,
2013-03-25 09:54:00,31.5,22.7,27.43,WSW,240,1.1,3.8,66,0.00,,,0.13,WSDL version 420,2013-03-25 13:54:00,
2013-03-25 09:59:00,31.5,22.6,27.43,SW,216,2.9,3.8,66,0.00,,,0.13,WSDL version 420,2013-03-25 13:59:00,
2013-03-25 10:04:00,31.6,22.6,27.46,WNW,300,1.9,4.0,66,0.00,,,0.13,WSDL version 420,2013-03-25 14:04:00,
2013-03-25 10:09:00,31.5,22.6,27.46,West,270,2.0,4.0,66,0.00,,,0.13,WSDL version 420,2013-03-25 14:09:00,
2013-03-25 10:14:00,31.7,22.8,27.46,WNW,293,2.7,3.6,66,0.00,,,0.13,WSDL version 420,2013-03-25 14:14:00,
2013-03-25 10:19:00,31.8,22.8,27.46,South,173,4.8,7.6,66,0.00,,,0.13,WSDL version 420,2013-03-25 14:19:00,
2013-03-25 10:24:00,31.6,22.7,27.46,West,263,1.6,7.6,66,0.00,,,0.13,WSDL version 420,2013-03-25 14:24:00,
2013-03-25 10:29:00,31.7,22.8,27.46,WSW,248,0.9,4.0,66,0.00,,,0.13,WSDL version 420,2013-03-25 14:29:00,
2013-03-25 10:34:00,31.7,22.8,27.46,SW,233,3.0,4.0,66,0.00,,,0.13,WSDL version 420,2013-03-25 14:34:00,
2013-03-25 10:39:00,31.5,22.7,27.46,WSW,248,2.2,4.0,67,0.00,,,0.13,WSDL version 420,2013-03-25 14:39:00,
2013-03-25 10:44:00,31.6,23.1,27.46,ESE,113,2.8,4.0,67,0.00,,,0.13,WSDL version 420,2013-03-25 14:44:00,
2013-03-25 10:49:00,31.8,23.2,27.46,SE,128,2.8,3.4,67,0.00,,,0.13,WSDL version 420,2013-03-25 14:49:00,
2013-03-25 10:54:00,31.4,22.9,27.46,SSE,165,1.7,3.1,68,0.00,,,0.13,WSDL version 420,2013-03-25 14:54:00,
2013-03-25 10:59:00,30.7,22.5,27.46,East,84,2.2,3.1,68,0.00,,,0.13,WSDL version 420,2013-03-25 14:59:00,
2013-03-25 11:04:00,30.6,22.8,27.46,SSW,203,1.5,2.9,70,0.00,,,0.13,WSDL version 420,2013-03-25 15:04:00,
2013-03-25 11:09:00,30.7,23.0,27.46,WSW,248,2.4,2.9,70,0.00,,,0.13,WSDL version 420,2013-03-25 15:09:00,
2013-03-25 11:14:00,30.5,23.1,27.46,SW,236,2.9,5.6,71,0.00,,,0.13,WSDL version 420,2013-03-25 15:14:00,
2013-03-25 11:19:00,30.6,23.3,27.46,WNW,287,1.0,5.6,71,0.00,,,0.13,WSDL version 420,2013-03-25 15:19:00,
2013-03-25 11:24:00,30.8,23.8,27.46,West,278,2.3,3.4,72,0.00,,,0.13,WSDL version 420,2013-03-25 15:24:00,
2013-03-25 11:34:00,30.8,23.8,27.46,NNE,23,2.8,4.7,72,0.00,,,0.13,WSDL version 420,2013-03-25 15:34:00,
2013-03-25 11:39:00,30.9,23.8,27.46,ENE,75,0.7,4.7,72,0.00,,,0.13,WSDL version 420,2013-03-25 15:39:00,
2013-03-25 11:44:00,30.9,24.2,27.46,SW,214,0.3,4.7,73,0.00,,,0.13,WSDL version 420,2013-03-25 15:44:00,
2013-03-25 11:49:00,31.0,24.2,27.49,North,360,1.0,3.6,73,-99.99,,,-99.99,WSDL version 420,2013-03-25 15:49:00,
2013-03-25 11:54:00,31.0,24.2,27.49,WSW,248,0.0,4.0,73,0.00,,,0.13,WSDL version 420,2013-03-25 15:54:00,
2013-03-25 12:01:00,31.3,24.5,27.49,SSE,158,2.0,4.0,73,0.00,,,0.13,WSDL version 420,2013-03-25 16:01:00,
2013-03-25 12:11:00,31.3,24.6,27.49,SSW,203,2.5,3.1,73,-99.99,,,-99.99,WSDL version 420,2013-03-25 16:11:00,
2013-03-25 12:21:00,31.5,24.7,27.49,WSW,248,2.0,6.3,73,0.00,,,0.13,WSDL version 420,2013-03-25 16:21:00,
2013-03-25 12:26:00,31.5,24.7,27.49,SW,214,2.4,3.8,73,0.00,,,0.13,WSDL version 420,2013-03-25 16:26:00,
2013-03-25 12:33:00,31.2,24.4,27.49,WNW,284,1.5,3.1,73,0.00,,,0.13,WSDL version 420,2013-03-25 16:33:00,
2013-03-25 12:38:00,31.5,25.0,27.49,NW,308,3.2,3.8,74,0.00,,,0.13,WSDL version 420,2013-03-25 16:38:00,
2013-03-25 12:43:00,31.4,24.9,27.49,WSW,248,2.6,3.8,74,0.00,,,0.13,WSDL version 420,2013-03-25 16:43:00,
2013-03-25 12:48:00,31.5,25.0,27.49,NW,308,2.6,3.8,74,0.00,,,0.13,WSDL version 420,2013-03-25 16:48:00,
2013-03-25 12:58:00,31.7,25.0,27.49,SW,225,2.7,3.6,73,0.00,,,0.13,WSDL version 420,2013-03-25 16:58:00,
2013-03-25 13:03:00,31.9,25.1,27.49,West,276,4.1,6.0,73,0.00,,,0.13,WSDL version 420,2013-03-25 17:03:00,
2013-03-25 13:08:00,31.8,25.0,27.49,NW,308,3.1,8.5,73,0.00,,,0.13,WSDL version 420,2013-03-25 17:08:00,
2013-03-25 13:13:00,32.0,25.2,27.49,WNW,293,2.5,8.5,73,0.00,,,0.13,WSDL version 420,2013-03-25 17:13:00,
2013-03-25 13:18:00,32.4,24.7,27.52,East,79,1.6,5.4,73,0.00,,,0.13,WSDL version 420,2013-03-25 17:18:00,
2013-03-25 13:23:00,32.4,24.7,27.52,SW,225,1.6,3.6,73,0.00,,,0.13,WSDL version 420,2013-03-25 17:23:00,
2013-03-25 13:33:00,32.4,24.7,27.52,NNW,345,3.6,5.6,73,0.00,,,0.13,WSDL version 420,2013-03-25 17:33:00,
2013-03-25 13:43:00,32.3,24.6,27.52,SSE,150,1.8,5.4,73,-99.99,,,-99.99,WSDL version 420,2013-03-25 17:43:00,
2013-03-25 13:48:00,32.7,25.1,27.52,WNW,293,2.5,4.0,73,-99.99,,,-99.99,WSDL version 420,2013-03-25 17:48:00,
2013-03-25 13:53:00,33.0,25.3,27.52,West,278,1.5,4.0,73,0.00,,,0.13,WSDL version 420,2013-03-25 17:53:00,
2013-03-25 13:58:00,33.3,25.6,27.52,SSE,158,2.5,3.6,73,0.00,,,0.13,WSDL version 420,2013-03-25 17:58:00,
2013-03-25 14:08:00,32.8,25.1,27.49,South,188,1.6,5.6,73,0.00,,,0.13,WSDL version 420,2013-03-25 18:08:00,
2013-03-25 14:13:00,32.7,25.0,27.49,WSW,255,2.5,4.3,73,0.00,,,0.13,WSDL version 420,2013-03-25 18:13:00,
2013-03-25 14:18:00,33.3,25.6,27.49,North,353,2.6,3.4,73,0.00,,,0.13,WSDL version 420,2013-03-25 18:18:00,
2013-03-25 14:23:00,33.9,26.1,27.49,WNW,293,2.2,4.0,73,0.00,,,0.13,WSDL version 420,2013-03-25 18:23:00,
2013-03-25 14:28:00,33.9,26.2,27.49,West,281,2.5,4.0,73,0.00,,,0.13,WSDL version 420,2013-03-25 18:28:00,
2013-03-25 14:33:00,33.1,25.4,27.52,West,263,4.6,6.5,73,0.04,,,0.17,WSDL version 420,2013-03-25 18:33:00,
2013-03-25 14:38:00,31.9,25.1,27.52,NNW,338,3.5,8.1,74,0.04,,,0.17,WSDL version 420,2013-03-25 18:38:00,
2013-03-25 14:43:00,32.0,25.5,27.52,ENE,62,2.8,8.1,75,0.04,,,0.17,WSDL version 420,2013-03-25 18:43:00,
2013-03-25 14:48:00,32.7,25.9,27.49,West,263,3.1,4.9,76,0.04,,,0.17,WSDL version 420,2013-03-25 18:48:00,
2013-03-25 14:53:00,32.9,26.2,27.49,SSE,158,4.0,4.3,76,0.04,,,0.17,WSDL version 420,2013-03-25 18:53:00,
2013-03-25 14:58:00,33.4,26.7,27.49,WSW,242,2.8,6.5,76,0.04,,,0.17,WSDL version 420,2013-03-25 18:58:00,
2013-03-25 15:03:00,34.0,27.2,27.52,NW,315,3.1,6.5,76,0.04,,,0.17,WSDL version 420,2013-03-25 19:03:00,
2013-03-25 15:08:00,34.5,27.5,27.52,WNW,300,2.9,4.7,75,0.04,,,0.17,WSDL version 420,2013-03-25 19:08:00,
2013-03-25 15:13:00,34.6,27.4,27.52,ENE,68,3.0,5.4,74,0.04,,,0.17,WSDL version 420,2013-03-25 19:13:00,
2013-03-25 15:23:00,34.0,26.6,27.52,WSW,248,2.8,4.3,74,0.04,,,0.17,WSDL version 420,2013-03-25 19:23:00,
2013-03-25 15:33:00,34.0,26.2,27.52,WSW,248,4.3,5.8,73,0.00,,,0.17,WSDL version 420,2013-03-25 19:33:00,
2013-03-25 15:38:00,34.4,26.3,27.52,NNW,338,3.6,4.9,71,0.00,,,0.17,WSDL version 420,2013-03-25 19:38:00,
2013-03-25 15:43:00,34.7,25.9,27.52,South,188,4.8,6.9,69,0.00,,,0.17,WSDL version 420,2013-03-25 19:43:00,
2013-03-25 15:48:00,34.7,25.1,27.52,NNW,330,5.7,6.9,67,0.00,,,0.17,WSDL version 420,2013-03-25 19:48:00,
2013-03-25 15:53:00,34.9,24.9,27.52,North,8,2.7,6.0,66,0.00,,,0.17,WSDL version 420,2013-03-25 19:53:00,
2013-03-25 15:58:00,35.1,24.9,27.52,NW,326,3.1,5.4,66,0.00,,,0.17,WSDL version 420,2013-03-25 19:58:00,
2013-03-25 16:03:00,34.5,24.3,27.52,West,281,3.0,6.7,66,0.00,,,0.17,WSDL version 420,2013-03-25 20:03:00,
2013-03-25 16:08:00,33.1,23.3,27.52,WNW,285,6.0,8.5,68,0.00,,,0.17,WSDL version 420,2013-03-25 20:08:00,
2013-03-25 16:13:00,31.3,23.7,27.52,NW,321,3.6,8.5,72,0.00,,,0.17,WSDL version 420,2013-03-25 20:13:00,
2013-03-25 16:18:00,32.2,25.0,27.52,NW,309,2.7,6.0,74,0.00,,,0.17,WSDL version 420,2013-03-25 20:18:00,
2013-03-25 16:28:00,32.7,25.7,27.52,NW,323,3.9,7.2,75,0.00,,,0.17,WSDL version 420,2013-03-25 20:28:00,
2013-03-25 16:33:00,32.8,25.6,27.52,WNW,293,3.9,7.2,74,0.00,,,0.17,WSDL version 420,2013-03-25 20:33:00,
2013-03-25 16:38:00,33.0,25.6,27.52,NNW,338,3.4,5.4,74,0.00,,,0.17,WSDL version 420,2013-03-25 20:38:00,
2013-03-25 16:43:00,33.3,25.7,27.52,NW,315,4.1,4.9,73,0.00,,,0.17,WSDL version 420,2013-03-25 20:43:00,
2013-03-25 16:48:00,33.3,25.6,27.52,North,354,4.4,10.7,73,0.00,,,0.17,WSDL version 420,2013-03-25 20:48:00,
2013-03-25 16:53:00,33.3,25.3,27.52,NNE,15,3.6,10.7,72,0.00,,,0.17,WSDL version 420,2013-03-25 20:53:00,
2013-03-25 16:58:00,33.3,24.9,27.52,NE,45,2.8,8.1,71,0.00,,,0.17,WSDL version 420,2013-03-25 20:58:00,
2013-03-25 17:03:00,33.3,24.8,27.55,South,169,3.5,4.9,71,0.00,,,0.17,WSDL version 420,2013-03-25 21:03:00,
2013-03-25 17:08:00,33.3,24.9,27.55,WNW,300,2.5,4.9,71,0.00,,,0.17,WSDL version 420,2013-03-25 21:08:00,
2013-03-25 17:13:00,33.4,25.0,27.55,SSW,208,3.4,4.3,71,0.00,,,0.17,WSDL version 420,2013-03-25 21:13:00,
2013-03-25 17:18:00,33.5,25.5,27.55,WNW,285,3.5,5.4,72,0.00,,,0.17,WSDL version 420,2013-03-25 21:18:00,
2013-03-25 17:23:00,33.6,25.6,27.55,NNE,15,2.7,5.4,72,0.00,,,0.17,WSDL version 420,2013-03-25 21:23:00,
2013-03-25 17:28:00,33.6,25.6,27.55,West,278,3.2,4.9,72,0.00,,,0.17,WSDL version 420,2013-03-25 21:28:00,
2013-03-25 17:33:00,33.8,25.5,27.55,West,270,2.4,4.9,71,0.00,,,0.17,WSDL version 420,2013-03-25 21:33:00,
2013-03-25 17:38:00,33.8,25.4,27.55,NW,323,4.5,7.2,71,0.00,,,0.17,WSDL version 420,2013-03-25 21:38:00,
2013-03-25 17:43:00,33.7,25.0,27.55,SSW,203,3.0,7.2,70,0.00,,,0.17,WSDL version 420,2013-03-25 21:43:00,
2013-03-25 17:53:00,33.3,24.3,27.55,East,98,2.9,7.2,69,0.00,,,0.17,WSDL version 420,2013-03-25 21:53:00,
2013-03-25 17:58:00,33.1,24.2,27.55,NW,315,4.4,4.9,70,0.00,,,0.17,WSDL version 420,2013-03-25 21:58:00,
2013-03-25 18:03:00,33.1,24.4,27.58,North,353,3.4,5.6,70,0.00,,,0.17,WSDL version 420,2013-03-25 22:03:00,
2013-03-25 18:13:00,33.6,24.5,27.58,North,360,2.5,7.2,69,0.00,,,0.17,WSDL version 420,2013-03-25 22:13:00,
2013-03-25 18:18:00,33.7,24.3,27.58,WNW,293,3.3,3.6,68,0.00,,,0.17,WSDL version 420,2013-03-25 22:18:00,
2013-03-25 18:23:00,33.6,24.2,27.58,NW,323,2.9,4.3,68,0.00,,,0.17,WSDL version 420,2013-03-25 22:23:00,
2013-03-25 18:28:00,33.7,24.1,27.58,NNW,338,3.6,4.3,67,0.00,,,0.17,WSDL version 420,2013-03-25 22:28:00,
2013-03-25 18:33:00,33.7,23.8,27.58,NNW,338,2.2,4.0,66,0.00,,,0.17,WSDL version 420,2013-03-25 22:33:00,
2013-03-25 18:38:00,33.8,23.7,27.58,SW,225,1.6,4.0,66,0.00,,,0.17,WSDL version 420,2013-03-25 22:38:00,
2013-03-25 18:43:00,33.7,23.6,27.58,WNW,293,4.4,6.5,66,0.00,,,0.17,WSDL version 420,2013-03-25 22:43:00,
2013-03-25 18:48:00,33.3,23.5,27.58,West,278,2.0,6.5,67,0.00,,,0.17,WSDL version 420,2013-03-25 22:48:00,
2013-03-25 18:53:00,33.3,23.7,27.58,SE,135,3.2,6.5,68,0.00,,,0.17,WSDL version 420,2013-03-25 22:53:00,
2013-03-25 18:58:00,33.4,23.7,27.58,WNW,293,2.5,5.8,67,0.00,,,0.17,WSDL version 420,2013-03-25 22:58:00,
2013-03-25 19:03:00,33.3,23.5,27.61,WNW,293,4.3,5.4,67,0.00,,,0.17,WSDL version 420,2013-03-25 23:03:00,
2013-03-25 19:08:00,33.3,23.3,27.61,WNW,302,3.2,5.4,66,0.00,,,0.17,WSDL version 420,2013-03-25 23:08:00,
2013-03-25 19:13:00,33.3,23.1,27.61,North,8,2.9,5.6,66,0.00,,,0.17,WSDL version 420,2013-03-25 23:13:00,
2013-03-25 19:18:00,33.4,23.1,27.61,NNW,338,3.2,6.3,65,0.00,,,0.17,WSDL version 420,2013-03-25 23:18:00,
2013-03-25 19:23:00,33.4,22.9,27.61,NW,309,3.3,6.3,65,0.00,,,0.17,WSDL version 420,2013-03-25 23:23:00,
2013-03-25 19:28:00,33.3,22.8,27.61,North,11,2.3,4.0,65,0.00,,,0.17,WSDL version 420,2013-03-25 23:28:00,
2013-03-25 19:33:00,33.3,22.4,27.61,NNW,345,3.6,5.4,64,0.00,,,0.17,WSDL version 420,2013-03-25 23:33:00,
2013-03-25 19:38:00,33.3,22.4,27.61,West,281,1.8,5.4,64,0.00,,,0.17,WSDL version 420,2013-03-25 23:38:00,
2013-03-25 19:43:00,33.3,22.5,27.61,NE,38,1.4,3.6,64,0.00,,,0.17,WSDL version 420,2013-03-25 23:43:00,
2013-03-25 19:48:00,33.3,22.4,27.64,NNE,15,1.7,3.6,64,0.00,,,0.17,WSDL version 420,2013-03-25 23:48:00,
2013-03-25 19:58:00,33.3,22.4,27.64,NNW,330,2.4,4.0,64,0.00,,,0.17,WSDL version 420,2013-03-25 23:58:00,
2013-03-25 20:03:00,33.1,22.3,27.64,WSW,248,3.5,4.0,64,0.00,,,0.17,WSDL version 420,2013-03-26 00:03:00,
2013-03-25 20:08:00,33.0,22.2,27.64,WNW,302,2.7,4.0,64,0.00,,,0.17,WSDL version 420,2013-03-26 00:08:00,
2013-03-25 20:13:00,32.7,21.9,27.64,SW,233,3.9,5.8,64,0.00,,,0.17,WSDL version 420,2013-03-26 00:13:00,
2013-03-25 20:18:00,32.4,22.0,27.64,West,270,3.0,5.8,65,0.00,,,0.17,WSDL version 420,2013-03-26 00:18:00,
2013-03-25 20:23:00,32.3,22.0,27.64,WNW,293,2.3,4.7,66,0.00,,,0.17,WSDL version 420,2013-03-26 00:23:00,
2013-03-25 20:28:00,32.4,22.3,27.64,WSW,248,1.6,4.7,66,0.00,,,0.17,WSDL version 420,2013-03-26 00:28:00,
2013-03-25 20:33:00,32.4,22.3,27.64,East,98,2.5,3.6,66,0.00,,,0.17,WSDL version 420,2013-03-26 00:33:00,
2013-03-25 20:38:00,32.4,22.3,27.64,NW,326,2.3,3.6,66,0.00,,,0.17,WSDL version 420,2013-03-26 00:38:00,
2013-03-25 20:43:00,32.4,22.3,27.64,ENE,75,2.6,4.7,66,0.00,,,0.17,WSDL version 420,2013-03-26 00:43:00,
2013-03-25 20:53:00,32.2,22.3,27.67,West,263,4.0,4.9,67,-99.99,,,-99.99,WSDL version 420,2013-03-26 00:53:00,
2013-03-25 20:58:00,32.0,23.4,27.67,South,188,2.3,4.7,67,0.00,,,0.17,WSDL version 420,2013-03-26 00:58:00,
2013-03-25 21:03:00,32.0,23.4,27.67,West,270,2.9,4.7,67,0.00,,,0.17,WSDL version 420,2013-03-26 01:03:00,
2013-03-25 21:08:00,32.0,23.4,27.67,SSE,150,2.9,4.7,67,0.00,,,0.17,WSDL version 420,2013-03-26 01:08:00,
2013-03-25 21:13:00,32.0,23.4,27.67,West,278,3.4,5.4,67,0.00,,,0.17,WSDL version 420,2013-03-26 01:13:00,
2013-03-25 21:18:00,32.0,23.3,27.67,South,173,1.3,5.4,66,0.00,,,0.17,WSDL version 420,2013-03-26 01:18:00,
2013-03-25 21:23:00,32.2,22.1,27.67,NNW,345,2.0,4.3,66,0.00,,,0.17,WSDL version 420,2013-03-26 01:23:00,
2013-03-25 21:28:00,32.2,22.3,27.67,East,90,2.1,3.4,67,0.00,,,0.17,WSDL version 420,2013-03-26 01:28:00,
2013-03-25 21:33:00,32.2,22.5,27.67,NE,53,0.3,2.9,67,0.00,,,0.17,WSDL version 420,2013-03-26 01:33:00,
2013-03-25 21:38:00,32.2,22.6,27.67,North,349,1.5,2.9,68,0.00,,,0.17,WSDL version 420,2013-03-26 01:38:00,
2013-03-25 21:43:00,32.0,23.4,27.67,SSE,158,0.4,1.6,68,0.00,,,0.17,WSDL version 420,2013-03-26 01:43:00,
2013-03-25 21:48:00,31.8,23.5,27.67,ENE,68,0.0,1.6,68,-99.99,,,-99.99,WSDL version 420,2013-03-26 01:48:00,
2013-03-25 21:53:00,31.8,23.8,27.67,SE,143,3.3,3.4,69,0.00,,,0.17,WSDL version 420,2013-03-26 01:53:00,
2013-03-25 21:58:00,31.6,23.6,27.67,NW,315,1.3,3.4,69,0.00,,,0.17,WSDL version 420,2013-03-26 01:58:00,
2013-03-25 22:03:00,31.5,23.5,27.70,SW,233,1.9,2.9,69,0.00,,,0.17,WSDL version 420,2013-03-26 02:03:00,
2013-03-25 22:08:00,31.5,23.8,27.70,SSW,203,2.5,3.1,70,0.00,,,0.17,WSDL version 420,2013-03-26 02:08:00,
2013-03-25 22:13:00,31.6,24.0,27.70,NNW,338,1.8,3.1,70,0.00,,,0.17,WSDL version 420,2013-03-26 02:13:00,
2013-03-25 22:18:00,31.6,24.0,27.70,West,278,1.2,2.2,70,0.00,,,0.17,WSDL version 420,2013-03-26 02:18:00,
2013-03-25 22:23:00,31.5,23.9,27.70,WNW,293,0.7,2.0,70,0.00,,,0.17,WSDL version 420,2013-03-26 02:23:00,
2013-03-25 22:28:00,31.5,23.8,27.70,NW,323,1.3,2.0,70,0.00,,,0.17,WSDL version 420,2013-03-26 02:28:00,
2013-03-25 22:33:00,31.5,23.8,27.70,West,281,2.6,2.9,70,0.00,,,0.17,WSDL version 420,2013-03-26 02:33:00,
2013-03-25 22:38:00,31.4,23.7,27.70,West,263,1.6,2.9,70,0.00,,,0.17,WSDL version 420,2013-03-26 02:38:00,
2013-03-25 22:43:00,31.5,24.1,27.70,NW,315,1.1,2.9,71,0.00,,,0.17,WSDL version 420,2013-03-26 02:43:00,
2013-03-25 22:48:00,31.5,24.1,27.70,ESE,113,1.4,2.7,71,0.00,,,0.17,WSDL version 420,2013-03-26 02:48:00,
2013-03-25 22:58:00,31.4,23.9,27.70,NW,308,1.9,3.4,71,0.00,,,0.17,WSDL version 420,2013-03-26 02:58:00,
2013-03-25 23:03:00,31.5,24.1,27.70,SW,230,1.5,3.4,71,0.00,,,0.17,WSDL version 420,2013-03-26 03:03:00,
2013-03-25 23:08:00,31.5,24.1,27.70,SE,128,1.2,3.6,71,0.00,,,0.17,WSDL version 420,2013-03-26 03:08:00,
2013-03-25 23:13:00,31.5,24.1,27.70,NW,315,2.0,3.6,71,0.00,,,0.17,WSDL version 420,2013-03-26 03:13:00,
2013-03-25 23:18:00,31.5,24.1,27.70,NNW,332,2.2,2.7,71,0.00,,,0.17,WSDL version 420,2013-03-26 03:18:00,
2013-03-25 23:23:00,31.5,24.1,27.70,SW,225,2.2,3.6,71,0.00,,,0.17,WSDL version 420,2013-03-26 03:23:00,
2013-03-25 23:28:00,31.5,24.2,27.70,NW,323,2.5,3.6,71,0.00,,,0.17,WSDL version 420,2013-03-26 03:28:00,
2013-03-25 23:33:00,31.7,24.4,27.70,SE,141,1.2,2.9,71,0.00,,,0.17,WSDL version 420,2013-03-26 03:33:00,
2013-03-25 23:38:00,31.6,24.0,27.70,NNE,23,2.7,2.7,70,0.00,,,0.17,WSDL version 420,2013-03-26 03:38:00,
2013-03-25 23:43:00,31.6,23.9,27.70,WNW,300,1.3,2.7,70,0.00,,,0.17,WSDL version 420,2013-03-26 03:43:00,
2013-03-25 23:48:00,31.5,23.8,27.70,NE,53,1.1,2.9,70,0.00,,,0.17,WSDL version 420,2013-03-26 03:48:00,
2013-03-25 23:53:00,31.5,23.9,27.70,SW,233,1.1,2.9,71,0.00,,,0.17,WSDL version 420,2013-03-26 03:53:00,